createdAt,value
2022-07-28T00:04:36.950Z,13.77
2022-07-28T00:09:39.658Z,13.80
2022-07-28T00:14:42.475Z,14.04
2022-07-28T00:19:46.518Z,13.83
2022-07-28T00:24:49.389Z,13.82
2022-07-28T00:29:52.956Z,13.70
2022-07-28T00:34:56.984Z,13.75
2022-07-28T00:39:59.688Z,13.64
2022-07-28T00:45:02.395Z,13.18
2022-07-28T00:50:07.330Z,13.02
2022-07-28T00:55:11.049Z,12.96
2022-07-28T01:00:14.330Z,13.16
2022-07-28T01:05:18.520Z,13.03
2022-07-28T01:10:45.347Z,13.10
2022-07-28T01:15:53.910Z,13.18
2022-07-28T01:21:00.985Z,13.35
2022-07-28T01:26:14.547Z,13.33
2022-07-28T01:31:23.561Z,13.35
2022-07-28T01:36:29.264Z,13.17
2022-07-28T01:41:34.300Z,13.13
2022-07-28T01:46:38.657Z,13.21
2022-07-28T01:51:42.531Z,13.17
2022-07-28T01:56:45.403Z,13.08
2022-07-28T02:01:50.842Z,13.17
2022-07-28T02:06:54.150Z,13.09
2022-07-28T02:11:57.304Z,13.24
2022-07-28T02:17:07.677Z,13.05
2022-07-28T02:22:10.968Z,13.02
2022-07-28T02:27:17.790Z,13.02
2022-07-28T02:32:28.594Z,13.02
2022-07-28T02:37:35.606Z,13.10
2022-07-28T02:42:39.552Z,13.06
2022-07-28T02:47:47.295Z,13.02
2022-07-28T02:52:50.736Z,13.15
2022-07-28T02:57:56.843Z,13.22
2022-07-28T03:03:01.642Z,13.01
2022-07-28T03:08:04.488Z,13.04
2022-07-28T03:13:07.819Z,13.08
2022-07-28T03:18:11.888Z,13.09
2022-07-28T03:23:14.890Z,13.05
2022-07-28T03:28:21.501Z,12.94
2022-07-28T03:33:25.647Z,12.90
2022-07-28T03:38:33.767Z,12.80
2022-07-28T03:43:36.702Z,12.82
2022-07-28T03:48:40.844Z,12.74
2022-07-28T03:53:44.289Z,12.62
2022-07-28T03:58:47.037Z,12.67
2022-07-28T04:03:51.114Z,12.72
2022-07-28T04:08:53.847Z,12.51
2022-07-28T04:13:56.862Z,12.61
2022-07-28T04:19:01.026Z,12.38
2022-07-28T04:24:03.833Z,12.38
2022-07-28T04:29:06.748Z,12.60
2022-07-28T04:34:11.177Z,12.26
2022-07-28T04:39:14.252Z,12.54
2022-07-28T04:44:17.758Z,12.50
2022-07-28T04:49:22.036Z,12.54
2022-07-28T04:54:26.777Z,12.57
2022-07-28T04:59:29.660Z,12.61
2022-07-28T05:04:36.083Z,12.61
2022-07-28T05:09:38.821Z,12.58
2022-07-28T05:14:41.524Z,12.82
2022-07-28T05:19:45.640Z,13.11
2022-07-28T05:24:48.422Z,13.49
2022-07-28T05:29:51.827Z,13.83
2022-07-28T05:34:55.915Z,13.61
2022-07-28T05:39:58.607Z,13.72
2022-07-28T05:45:01.304Z,13.72
2022-07-28T05:50:06.084Z,14.00
2022-07-28T05:55:09.854Z,14.11
2022-07-28T06:00:14.813Z,13.98
2022-07-28T06:05:20.245Z,14.73
2022-07-28T06:10:24.207Z,14.61
2022-07-28T06:15:28.221Z,14.93
2022-07-28T06:20:32.341Z,14.77
2022-07-28T06:25:35.039Z,14.99
2022-07-28T06:30:37.759Z,15.43
2022-07-28T06:35:45.258Z,15.15
2022-07-28T06:40:50.982Z,15.38
2022-07-28T06:45:53.770Z,15.49
2022-07-28T06:50:59.568Z,15.32
2022-07-28T06:56:03.162Z,15.34
2022-07-28T07:01:07.782Z,15.88
2022-07-28T07:06:12.150Z,15.88
2022-07-28T07:11:14.917Z,16.19
2022-07-28T07:16:17.897Z,16.34
2022-07-28T07:21:21.973Z,16.59
2022-07-28T07:26:25.322Z,16.60
2022-07-28T07:31:28.170Z,16.92
2022-07-28T07:36:32.462Z,16.69
2022-07-28T07:41:35.225Z,16.86
2022-07-28T07:46:39.422Z,17.08
2022-07-28T07:51:43.696Z,17.56
2022-07-28T07:56:46.629Z,17.57
2022-07-28T08:01:54.291Z,17.74
2022-07-28T08:06:58.584Z,17.08
2022-07-28T08:12:01.424Z,17.92
2022-07-28T08:17:07.094Z,17.87
2022-07-28T08:22:11.867Z,18.28
2022-07-28T08:27:14.660Z,18.11
2022-07-28T08:32:17.359Z,18.57
2022-07-28T08:37:21.423Z,18.57
2022-07-28T08:42:29.200Z,18.85
2022-07-28T08:47:46.018Z,18.81
2022-07-28T08:52:57.056Z,19.17
2022-07-28T08:58:03.010Z,18.75
2022-07-28T09:03:05.800Z,18.69
2022-07-28T09:08:09.924Z,19.07
2022-07-28T09:13:13.306Z,18.87
2022-07-28T09:18:17.397Z,19.29
2022-07-28T09:23:42.538Z,19.21
2022-07-28T09:28:52.922Z,19.11
2022-07-28T09:34:01.377Z,19.52
2022-07-28T09:39:05.548Z,20.06
2022-07-28T09:44:19.002Z,20.41
2022-07-28T09:49:28.049Z,20.44
2022-07-28T09:54:36.124Z,20.29
2022-07-28T09:59:43.585Z,20.76
2022-07-28T10:04:52.751Z,20.89
2022-07-28T10:10:03.087Z,20.70
2022-07-28T10:15:34.360Z,21.07
2022-07-28T10:20:38.260Z,20.99
2022-07-28T10:25:44.291Z,21.49
2022-07-28T10:30:48.776Z,21.73
2022-07-28T10:35:55.225Z,21.27
2022-07-28T10:41:02.966Z,21.67
2022-07-28T10:46:08.896Z,21.82
2022-07-28T10:51:13.812Z,21.78
2022-07-28T10:56:22.710Z,22.18
2022-07-28T11:01:51.844Z,22.43
2022-07-28T11:07:10.779Z,21.78
2022-07-28T11:12:15.412Z,22.31
2022-07-28T11:17:24.515Z,22.66
2022-07-28T11:22:35.739Z,22.71
2022-07-28T11:28:05.327Z,22.46
2022-07-28T11:33:09.418Z,22.10
2022-07-28T11:38:13.771Z,22.60
2022-07-28T11:43:39.418Z,23.03
2022-07-28T11:48:43.582Z,23.40
2022-07-28T11:53:49.543Z,23.38
2022-07-28T11:58:59.411Z,23.88
2022-07-28T12:04:02.370Z,24.15
2022-07-28T12:09:07.327Z,24.14
2022-07-28T12:14:14.245Z,23.39
2022-07-28T12:19:19.059Z,23.62
2022-07-28T12:24:28.347Z,24.48
2022-07-28T12:29:36.093Z,24.75
2022-07-28T12:34:40.364Z,24.47
2022-07-28T12:39:44.252Z,24.59
2022-07-28T12:44:51.225Z,24.13
2022-07-28T12:50:09.753Z,24.28
2022-07-28T12:55:24.576Z,24.29
2022-07-28T13:00:30.856Z,25.35
2022-07-28T13:05:50.132Z,25.00
2022-07-28T13:10:57.003Z,25.16
2022-07-28T13:16:16.375Z,23.20
2022-07-28T13:21:41.128Z,25.10
2022-07-28T13:27:00.765Z,25.61
2022-07-28T13:32:05.035Z,24.95
2022-07-28T13:37:07.848Z,25.16
2022-07-28T13:42:10.575Z,24.61
2022-07-28T13:47:17.393Z,24.66
2022-07-28T13:52:32.852Z,24.86
2022-07-28T13:57:37.500Z,24.53
2022-07-28T14:02:48.666Z,24.38
2022-07-28T14:07:51.583Z,24.27
2022-07-28T14:12:54.306Z,24.54
2022-07-28T14:17:58.426Z,24.55
2022-07-28T14:23:01.396Z,25.08
2022-07-28T14:28:04.319Z,24.76
2022-07-28T14:33:08.392Z,24.19
2022-07-28T14:43:33.847Z,24.82
2022-07-28T14:48:37.946Z,25.15
2022-07-28T14:53:43.396Z,24.81
2022-07-28T14:58:54.302Z,24.72
2022-07-28T15:03:58.364Z,24.69
2022-07-28T15:09:02.136Z,24.44
2022-07-28T15:14:05.356Z,24.32
2022-07-28T15:19:09.772Z,24.51
2022-07-28T15:24:13.084Z,24.70
2022-07-28T15:29:15.999Z,24.72
2022-07-28T15:34:22.463Z,24.77
2022-07-28T15:39:25.223Z,24.97
2022-07-28T15:44:33.656Z,24.46
2022-07-28T15:49:37.701Z,24.39
2022-07-28T15:54:40.431Z,24.26
2022-07-28T15:59:49.623Z,24.67
2022-07-28T16:04:54.842Z,24.31
2022-07-28T16:09:57.642Z,24.38
2022-07-28T16:15:00.642Z,24.48
2022-07-28T16:20:05.679Z,23.95
2022-07-28T16:25:16.642Z,23.64
2022-07-28T16:30:19.618Z,23.70
2022-07-28T16:35:23.673Z,23.72
2022-07-28T16:40:26.507Z,23.67
2022-07-28T16:45:29.994Z,23.76
2022-07-28T16:50:35.542Z,23.87
2022-07-28T16:55:38.351Z,24.02
2022-07-28T17:00:41.155Z,23.74
2022-07-28T17:05:45.559Z,23.55
2022-07-28T17:10:48.416Z,23.57
2022-07-28T17:15:51.197Z,23.53
2022-07-28T17:20:55.318Z,23.27
2022-07-28T17:26:35.595Z,23.46
2022-07-28T17:31:20.873Z,23.27
2022-07-28T17:36:25.156Z,23.08
2022-07-28T17:41:27.928Z,23.18
2022-07-28T17:46:30.841Z,23.09
2022-07-28T17:51:35.343Z,23.01
2022-07-28T17:56:38.075Z,22.91
2022-07-28T18:01:45.383Z,22.74
2022-07-28T18:06:49.773Z,22.64
2022-07-28T18:11:57.987Z,22.72
2022-07-28T18:17:01.343Z,22.61
2022-07-28T18:22:05.500Z,22.46
2022-07-28T18:27:08.263Z,22.39
2022-07-28T18:32:12.152Z,22.19
2022-07-28T18:37:16.222Z,22.23
2022-07-28T18:42:18.996Z,22.08
2022-07-28T18:47:21.698Z,21.80
2022-07-28T18:52:25.865Z,21.92
2022-07-28T18:57:28.770Z,21.61
2022-07-28T19:02:31.510Z,21.78
2022-07-28T19:07:35.611Z,21.52
2022-07-28T19:12:38.329Z,21.44
2022-07-28T19:17:41.042Z,21.39
2022-07-28T19:22:45.129Z,21.33
2022-07-28T19:27:47.810Z,21.35
2022-07-28T19:32:50.641Z,21.17
2022-07-28T19:37:56.382Z,21.10
2022-07-28T19:42:59.225Z,21.04
2022-07-28T19:48:03.611Z,20.98
2022-07-28T19:53:07.745Z,20.94
2022-07-28T19:58:17.690Z,20.78
2022-07-28T20:04:00.728Z,20.81
2022-07-28T20:08:45.338Z,20.70
2022-07-28T20:13:49.461Z,20.60
2022-07-28T20:18:52.643Z,20.64
2022-07-28T20:23:57.898Z,20.63
2022-07-28T20:29:01.614Z,20.59
2022-07-28T20:34:06.602Z,20.50
2022-07-28T20:39:34.374Z,20.49
2022-07-28T20:44:33.805Z,20.24
2022-07-28T20:49:36.721Z,20.31
2022-07-28T20:54:40.797Z,20.24
2022-07-28T20:59:43.782Z,20.28
2022-07-28T21:04:46.544Z,20.19
2022-07-28T21:09:54.487Z,19.98
2022-07-28T21:14:57.181Z,20.11
2022-07-28T21:19:59.871Z,19.83
2022-07-28T21:25:04.019Z,19.81
2022-07-28T21:30:07.479Z,19.68
2022-07-28T21:35:14.294Z,19.61
2022-07-28T21:40:18.500Z,19.65
2022-07-28T21:45:22.714Z,19.71
2022-07-28T21:50:25.477Z,19.56
2022-07-28T21:55:29.689Z,19.57
2022-07-28T22:00:32.537Z,19.41
2022-07-28T22:05:35.271Z,19.33
2022-07-28T22:10:39.312Z,19.34
2022-07-28T22:15:42.225Z,19.18
2022-07-28T22:20:44.994Z,19.13
2022-07-28T22:25:49.035Z,19.11
2022-07-28T22:30:53.377Z,18.89
2022-07-28T22:35:56.207Z,18.89
2022-07-28T22:41:00.600Z,18.92
2022-07-28T22:46:03.648Z,18.82
2022-07-28T22:51:10.848Z,18.92
2022-07-28T22:56:15.015Z,18.90
2022-07-28T23:01:17.849Z,18.77
2022-07-28T23:06:20.923Z,18.82
2022-07-28T23:11:24.962Z,18.77
2022-07-28T23:16:27.680Z,18.73
2022-07-28T23:21:30.454Z,18.63
2022-07-28T23:26:34.751Z,18.66
2022-07-28T23:31:37.505Z,18.76
2022-07-28T23:36:40.250Z,18.74
2022-07-28T23:41:44.285Z,18.63
2022-07-28T23:46:47.092Z,18.78
2022-07-28T23:51:50.131Z,18.81
2022-07-28T23:56:56.425Z,18.80
